Idlewild, Louisiana
Current Conditions -  °F | °C
As of 2:55 PM on Friday 19 Dec 2014 (Local Time) from KPTN Reporting Station
Overcast Overcast  
Wind Chill: 55°   Ceiling: 500
Heat Index: 55°   Visibility: 1.5mi
Dew Point: 54°   Wind: 7mph
Humidity: 94%   Direction: 60°ENE
Pressure: 30.02"   Gusts: NA
Location:  29.6955°N, 91.3176°W
Report Text: KPTN 192055Z AUTO 06006KT 1 1/2SM BKN005 OVC026 13/12 A3002 RMK AO1 57017
Loading
Personal Weather Stations






























Interactive Weather Map New forecast layout! Learn more

10-Day Weather Forecast

Advertisements
Track Severe Weather on mobile